createdAt,value
2018-06-29T00:02:14.157Z,63.10
2018-06-29T00:04:44.696Z,63.61
2018-06-29T00:07:15.614Z,63.31
2018-06-29T00:09:45.885Z,63.52
2018-06-29T00:12:17.079Z,64.04
2018-06-29T00:14:49.202Z,64.15
2018-06-29T00:17:18.572Z,64.43
2018-06-29T00:19:49.553Z,64.62
2018-06-29T00:22:21.409Z,64.88
2018-06-29T00:24:52.800Z,64.43
2018-06-29T00:27:24.291Z,64.87
2018-06-29T00:29:53.456Z,64.64
2018-06-29T00:32:24.045Z,65.02
2018-06-29T00:34:54.569Z,64.97
2018-06-29T00:37:24.486Z,65.19
2018-06-29T00:39:55.334Z,64.43
2018-06-29T00:42:27.029Z,65.29
2018-06-29T00:44:58.822Z,65.24
2018-06-29T00:47:28.317Z,65.60
2018-06-29T00:49:58.767Z,65.12
2018-06-29T00:52:28.688Z,65.26
2018-06-29T00:55:00.611Z,65.15
2018-06-29T00:57:31.665Z,65.06
2018-06-29T01:00:04.556Z,65.25
2018-06-29T01:02:33.749Z,65.24
2018-06-29T01:05:04.316Z,65.00
2018-06-29T01:07:35.053Z,65.32
2018-06-29T01:10:04.975Z,64.86
2018-06-29T01:12:34.119Z,64.70
2018-06-29T01:15:04.145Z,64.62
2018-06-29T01:17:35.196Z,65.33
2018-06-29T01:20:04.527Z,64.28
2018-06-29T01:22:36.477Z,64.98
2018-06-29T01:25:06.469Z,65.36
2018-06-29T01:27:38.123Z,64.94
2018-06-29T01:30:08.191Z,64.81
2018-06-29T01:32:38.066Z,64.84
2018-06-29T01:35:08.337Z,65.09
2018-06-29T01:37:37.555Z,64.97
2018-06-29T01:40:08.234Z,65.01
2018-06-29T01:42:38.964Z,65.00
2018-06-29T01:45:11.541Z,65.85
2018-06-29T01:47:42.969Z,65.19
2018-06-29T01:50:12.647Z,66.07
2018-06-29T01:52:43.794Z,66.13
2018-06-29T01:55:14.079Z,65.94
2018-06-29T01:57:44.005Z,66.29
2018-06-29T02:00:13.126Z,65.89
2018-06-29T02:02:43.678Z,66.42
2018-06-29T02:05:15.305Z,66.37
2018-06-29T02:07:46.148Z,66.18
2018-06-29T02:10:15.673Z,66.23
2018-06-29T02:12:47.466Z,66.77
2018-06-29T02:15:18.886Z,66.93
2018-06-29T02:17:52.836Z,66.77
2018-06-29T02:20:22.919Z,67.32
2018-06-29T02:22:52.295Z,67.31
2018-06-29T02:25:22.246Z,67.31
2018-06-29T02:27:53.661Z,67.11
2018-06-29T02:30:23.889Z,67.56
2018-06-29T02:32:54.245Z,67.63
2018-06-29T02:35:23.436Z,66.98
2018-06-29T02:37:54.946Z,67.43
2018-06-29T02:40:24.112Z,66.89
2018-06-29T02:42:54.329Z,67.10
2018-06-29T02:45:24.493Z,66.93
2018-06-29T02:47:55.033Z,66.87
2018-06-29T02:50:25.082Z,67.02
2018-06-29T02:52:56.349Z,66.99
2018-06-29T02:55:26.888Z,67.57
2018-06-29T02:57:56.751Z,66.68
2018-06-29T03:00:27.708Z,66.79
2018-06-29T03:02:58.217Z,66.73
2018-06-29T03:05:29.937Z,66.78
2018-06-29T03:08:00.965Z,66.79
2018-06-29T03:10:30.221Z,66.46
2018-06-29T03:13:00.966Z,66.84
2018-06-29T03:15:30.815Z,66.80
2018-06-29T03:18:01.115Z,66.81
2018-06-29T03:20:33.512Z,66.38
2018-06-29T03:23:03.727Z,66.02
2018-06-29T03:25:35.954Z,65.67
2018-06-29T03:28:05.944Z,66.01
2018-06-29T03:30:37.485Z,66.11
2018-06-29T03:33:08.705Z,65.81
2018-06-29T03:35:38.979Z,65.51
2018-06-29T03:38:10.960Z,64.83
2018-06-29T03:40:41.766Z,64.18
2018-06-29T03:43:12.976Z,64.45
2018-06-29T03:45:43.176Z,64.45
2018-06-29T03:48:13.068Z,63.80
2018-06-29T03:50:44.592Z,63.20
2018-06-29T03:53:14.139Z,60.42
2018-06-29T03:55:44.721Z,57.62
2018-06-29T03:58:15.130Z,53.82
2018-06-29T04:00:46.990Z,50.60
2018-06-29T04:03:18.922Z,48.73
2018-06-29T04:05:49.396Z,47.28
2018-06-29T04:08:20.486Z,44.87
2018-06-29T04:10:50.442Z,43.88
2018-06-29T04:13:21.978Z,42.11
2018-06-29T04:15:53.253Z,40.92
2018-06-29T04:18:23.870Z,39.72
2018-06-29T04:20:55.261Z,39.49
2018-06-29T04:23:24.736Z,38.29
2018-06-29T04:25:54.784Z,37.47
2018-06-29T04:28:25.948Z,37.37
2018-06-29T04:30:57.893Z,35.72
2018-06-29T04:33:28.005Z,35.64
2018-06-29T04:35:59.259Z,34.53
2018-06-29T04:38:30.852Z,33.52
2018-06-29T04:41:01.602Z,33.29
2018-06-29T04:43:33.178Z,32.41
2018-06-29T04:46:02.963Z,32.74
2018-06-29T04:48:33.275Z,31.27
2018-06-29T04:51:02.522Z,30.84
2018-06-29T04:53:33.171Z,30.95
2018-06-29T04:56:04.508Z,30.46
2018-06-29T04:58:36.690Z,29.77
2018-06-29T05:01:06.628Z,29.97
2018-06-29T05:03:38.574Z,29.66
2018-06-29T05:06:08.543Z,29.13
2018-06-29T05:08:40.088Z,28.33
2018-06-29T05:11:10.288Z,28.49
2018-06-29T05:13:39.745Z,27.74
2018-06-29T05:16:12.109Z,28.27
2018-06-29T05:18:41.765Z,27.76
2018-06-29T05:21:13.033Z,28.30
2018-06-29T05:23:43.262Z,27.70
2018-06-29T05:26:15.380Z,26.48
2018-06-29T05:28:45.305Z,26.07
2018-06-29T05:31:14.759Z,26.33
2018-06-29T05:33:47.159Z,26.68
2018-06-29T05:36:16.788Z,26.59
2018-06-29T05:38:46.236Z,26.19
2018-06-29T05:41:16.451Z,25.57
2018-06-29T05:43:47.419Z,25.40
2018-06-29T05:46:20.291Z,24.12
2018-06-29T05:48:56.120Z,23.86
2018-06-29T05:51:25.296Z,23.54
2018-06-29T05:53:55.910Z,23.91
2018-06-29T05:56:27.892Z,23.52
2018-06-29T05:58:59.023Z,22.69
2018-06-29T06:01:28.300Z,22.40
2018-06-29T06:04:00.938Z,22.45
2018-06-29T06:06:30.279Z,22.30
2018-06-29T06:09:02.455Z,22.46
2018-06-29T06:11:34.098Z,21.83
2018-06-29T06:14:05.920Z,22.15
2018-06-29T06:16:37.670Z,22.24
2018-06-29T06:19:24.325Z,21.94
2018-06-29T06:21:54.683Z,21.80
2018-06-29T06:24:26.780Z,21.57
2018-06-29T06:26:56.991Z,21.36
2018-06-29T06:29:27.447Z,21.65
2018-06-29T06:31:57.740Z,21.30
2018-06-29T06:34:28.140Z,20.71
2018-06-29T06:36:59.107Z,20.63
2018-06-29T06:39:28.765Z,20.30
2018-06-29T06:42:00.910Z,19.93
2018-06-29T06:44:31.428Z,19.90
2018-06-29T06:47:02.749Z,19.61
2018-06-29T06:49:33.813Z,19.58
2018-06-29T06:52:03.379Z,18.87
2018-06-29T06:54:34.206Z,18.96
2018-06-29T06:57:04.710Z,18.75
2018-06-29T06:59:35.727Z,19.01
2018-06-29T07:02:08.158Z,18.97
2018-06-29T07:04:39.081Z,18.46
2018-06-29T07:07:08.214Z,18.46
2018-06-29T07:09:38.571Z,18.05
2018-06-29T07:12:10.574Z,17.75
2018-06-29T07:14:39.973Z,17.90
2018-06-29T07:17:10.425Z,17.89
2018-06-29T07:19:41.848Z,18.13
2018-06-29T07:22:12.748Z,18.41
2018-06-29T07:24:44.714Z,18.05
2018-06-29T07:27:14.043Z,17.74
2018-06-29T07:29:43.241Z,17.67
2018-06-29T07:32:14.145Z,17.65
2018-06-29T07:34:44.858Z,17.27
2018-06-29T07:37:17.297Z,17.13
2018-06-29T07:39:46.629Z,17.51
2018-06-29T07:42:17.637Z,17.35
2018-06-29T07:44:46.871Z,18.09
2018-06-29T07:47:18.458Z,17.66
2018-06-29T07:49:49.450Z,18.17
2018-06-29T07:52:18.693Z,17.74
2018-06-29T07:54:49.588Z,17.58
2018-06-29T07:57:19.553Z,17.32
2018-06-29T07:59:49.382Z,17.06
2018-06-29T08:02:18.524Z,16.98
2018-06-29T08:04:47.667Z,16.89
2018-06-29T08:07:16.822Z,17.17
2018-06-29T08:09:45.961Z,17.29
2018-06-29T08:12:15.084Z,16.88
2018-06-29T08:14:44.439Z,16.85
2018-06-29T08:17:13.654Z,17.20
2018-06-29T08:19:42.787Z,16.86
2018-06-29T08:22:13.669Z,16.52
2018-06-29T08:25:00.189Z,16.90
2018-06-29T08:27:29.337Z,16.45
2018-06-29T08:29:58.488Z,16.51
2018-06-29T08:32:27.669Z,16.59
2018-06-29T08:34:56.825Z,16.26
2018-06-29T08:37:25.998Z,16.05
2018-06-29T08:39:55.156Z,16.15
2018-06-29T08:42:24.379Z,15.87
2018-06-29T08:44:53.562Z,15.92
2018-06-29T08:47:22.720Z,15.86
2018-06-29T08:49:51.880Z,16.43
2018-06-29T08:52:21.308Z,15.96
2018-06-29T08:54:50.472Z,15.83
2018-06-29T08:57:19.624Z,16.00
2018-06-29T08:59:48.807Z,15.66
2018-06-29T09:02:17.935Z,15.66
2018-06-29T09:04:47.083Z,15.22
2018-06-29T09:07:16.238Z,15.46
2018-06-29T09:09:45.333Z,14.72
2018-06-29T09:12:14.520Z,14.64
2018-06-29T09:14:43.662Z,14.33
2018-06-29T09:17:12.851Z,14.21
2018-06-29T09:19:41.954Z,14.31
2018-06-29T09:22:11.104Z,14.74
2018-06-29T09:24:40.270Z,14.81
2018-06-29T09:27:09.431Z,15.10
2018-06-29T09:29:38.591Z,14.67
2018-06-29T09:32:07.733Z,15.35
2018-06-29T09:34:36.919Z,15.67
2018-06-29T09:37:06.202Z,15.74
2018-06-29T09:39:35.344Z,15.93
2018-06-29T09:42:04.522Z,15.81
2018-06-29T09:44:33.650Z,15.50
2018-06-29T09:47:02.862Z,15.34
2018-06-29T09:49:32.101Z,14.77
2018-06-29T09:52:01.283Z,14.80
2018-06-29T09:54:30.558Z,15.76
2018-06-29T09:56:59.839Z,16.12
2018-06-29T09:59:29.066Z,16.56
2018-06-29T10:01:58.215Z,16.63
2018-06-29T10:04:27.535Z,16.82
2018-06-29T10:06:57.249Z,16.23
2018-06-29T10:09:26.387Z,15.82
2018-06-29T10:11:55.521Z,15.59
2018-06-29T10:14:24.706Z,15.21
2018-06-29T10:16:53.872Z,15.39
2018-06-29T10:19:22.997Z,15.24
2018-06-29T10:21:52.125Z,15.40
2018-06-29T10:24:21.336Z,15.84
2018-06-29T10:26:50.438Z,16.35
2018-06-29T10:29:19.600Z,17.22
2018-06-29T10:31:48.821Z,17.56
2018-06-29T10:34:18.101Z,17.92
2018-06-29T10:36:47.306Z,18.56
2018-06-29T10:39:16.787Z,19.27
2018-06-29T10:41:45.898Z,19.80
2018-06-29T10:44:14.993Z,20.42
2018-06-29T10:46:44.121Z,20.51
2018-06-29T10:49:13.299Z,20.02
2018-06-29T10:51:42.462Z,19.82
2018-06-29T10:54:11.655Z,19.24
2018-06-29T10:56:40.818Z,19.13
2018-06-29T10:59:09.947Z,19.94
2018-06-29T11:01:39.073Z,19.72
2018-06-29T11:04:08.198Z,19.50
2018-06-29T11:06:37.351Z,20.32
2018-06-29T11:09:09.566Z,20.56
2018-06-29T11:11:38.667Z,20.42
2018-06-29T11:14:08.634Z,20.29
2018-06-29T11:16:37.902Z,20.11
2018-06-29T11:19:07.335Z,21.18
2018-06-29T11:21:36.492Z,21.22
2018-06-29T11:24:05.644Z,21.86
2018-06-29T11:26:34.782Z,22.12
2018-06-29T11:29:03.893Z,23.44
2018-06-29T11:31:33.013Z,23.58
2018-06-29T11:34:02.111Z,24.02
2018-06-29T11:36:31.228Z,25.06
2018-06-29T11:39:00.363Z,25.19
2018-06-29T11:41:29.637Z,25.05
2018-06-29T11:44:05.482Z,25.74
2018-06-29T11:46:34.632Z,26.24
2018-06-29T11:49:05.480Z,25.78
2018-06-29T11:51:34.607Z,26.04
2018-06-29T11:54:03.848Z,27.51
2018-06-29T11:56:32.986Z,27.21
2018-06-29T11:59:02.079Z,27.40
2018-06-29T12:01:31.280Z,28.08
2018-06-29T12:04:07.024Z,27.33
2018-06-29T12:06:36.334Z,27.68
2018-06-29T12:09:09.188Z,28.61
2018-06-29T12:11:38.361Z,28.82
2018-06-29T12:14:07.508Z,28.90
2018-06-29T12:16:36.715Z,28.45
2018-06-29T12:19:05.894Z,29.45
2018-06-29T12:21:35.089Z,29.10
2018-06-29T12:24:04.210Z,28.54
2018-06-29T12:26:33.357Z,28.85
2018-06-29T12:29:02.494Z,29.37
2018-06-29T12:31:31.637Z,29.28
2018-06-29T12:34:00.794Z,28.35
2018-06-29T12:36:30.061Z,28.07
2018-06-29T12:38:59.191Z,28.08
2018-06-29T12:41:28.451Z,28.64
2018-06-29T12:43:57.585Z,29.27
2018-06-29T12:46:26.678Z,28.76
2018-06-29T12:48:55.779Z,29.18
2018-06-29T12:51:24.967Z,30.05
2018-06-29T12:53:54.055Z,29.27
2018-06-29T12:56:23.167Z,30.03
2018-06-29T12:58:52.483Z,30.44
2018-06-29T13:01:21.678Z,29.81
2018-06-29T13:03:50.793Z,30.89
2018-06-29T13:06:20.007Z,30.71
2018-06-29T13:08:49.145Z,29.64
2018-06-29T13:11:18.377Z,29.33
2018-06-29T13:13:47.557Z,30.01
2018-06-29T13:16:16.727Z,29.32
2018-06-29T13:18:45.940Z,28.50
2018-06-29T13:21:15.055Z,28.41
2018-06-29T13:23:44.217Z,29.29
2018-06-29T13:26:13.354Z,28.52
2018-06-29T13:28:42.445Z,28.05
2018-06-29T13:31:11.661Z,28.07
2018-06-29T13:33:40.847Z,28.23
2018-06-29T13:36:09.978Z,27.70
2018-06-29T13:38:39.110Z,27.72
2018-06-29T13:41:08.234Z,27.75
2018-06-29T13:43:37.525Z,27.36
2018-06-29T13:46:06.718Z,27.58
2018-06-29T13:48:35.825Z,27.02
2018-06-29T13:51:05.032Z,26.17
2018-06-29T13:53:34.299Z,26.56
2018-06-29T13:56:03.549Z,26.82
2018-06-29T13:58:32.826Z,26.72
2018-06-29T14:01:02.013Z,26.35
2018-06-29T14:03:31.154Z,27.19
2018-06-29T14:06:00.330Z,26.85
2018-06-29T14:08:29.451Z,27.81
2018-06-29T14:10:58.645Z,26.64
2018-06-29T14:13:27.936Z,26.34
2018-06-29T14:15:57.112Z,26.55
2018-06-29T14:18:26.279Z,26.06
2018-06-29T14:20:55.438Z,26.12
2018-06-29T14:23:24.750Z,26.77
2018-06-29T14:25:53.929Z,26.90
2018-06-29T14:28:23.192Z,26.14
2018-06-29T14:30:52.420Z,26.29
2018-06-29T14:33:21.746Z,27.70
2018-06-29T14:35:50.882Z,27.43
2018-06-29T14:38:20.042Z,27.90
2018-06-29T14:40:49.201Z,27.77
2018-06-29T14:43:18.379Z,28.64
2018-06-29T14:45:47.598Z,28.48
2018-06-29T14:48:16.798Z,28.25
2018-06-29T14:50:46.026Z,27.83
2018-06-29T14:53:15.155Z,28.16
2018-06-29T14:55:44.254Z,29.29
2018-06-29T14:58:13.440Z,29.42
2018-06-29T15:00:42.583Z,29.40
2018-06-29T15:03:11.723Z,28.79
2018-06-29T15:05:40.875Z,28.98
2018-06-29T15:08:10.032Z,28.61
2018-06-29T15:10:39.168Z,28.84
2018-06-29T15:13:08.327Z,28.98
2018-06-29T15:15:37.835Z,29.13
2018-06-29T15:18:07.588Z,30.56
2018-06-29T15:20:36.809Z,30.24
2018-06-29T15:23:06.329Z,29.54
2018-06-29T15:25:35.872Z,30.57
2018-06-29T15:28:05.969Z,29.35
2018-06-29T15:30:35.292Z,29.95
2018-06-29T15:33:04.526Z,30.06
2018-06-29T15:35:33.652Z,30.83
2018-06-29T15:38:02.820Z,31.13
2018-06-29T15:40:31.950Z,30.53
2018-06-29T15:43:01.461Z,31.26
2018-06-29T15:45:30.732Z,34.93
2018-06-29T15:47:59.908Z,37.63
2018-06-29T15:50:29.076Z,39.68
2018-06-29T15:52:58.229Z,41.81
2018-06-29T15:55:27.447Z,41.90
2018-06-29T15:57:56.569Z,43.08
2018-06-29T16:00:25.726Z,44.43
2018-06-29T16:02:54.846Z,45.62
2018-06-29T16:05:24.038Z,46.71
2018-06-29T16:07:53.518Z,45.77
2018-06-29T16:10:22.702Z,46.29
2018-06-29T16:12:52.170Z,47.35
2018-06-29T16:15:21.329Z,47.89
2018-06-29T16:17:50.547Z,48.37
2018-06-29T16:20:19.838Z,48.80
2018-06-29T16:22:48.985Z,47.96
2018-06-29T16:25:18.171Z,48.23
2018-06-29T16:27:47.474Z,48.38
2018-06-29T16:30:16.882Z,49.33
2018-06-29T16:32:45.970Z,48.80
2018-06-29T16:35:15.144Z,49.02
2018-06-29T16:37:44.830Z,49.79
2018-06-29T16:40:13.970Z,49.21
2018-06-29T16:42:43.169Z,48.84
2018-06-29T16:45:12.483Z,48.13
2018-06-29T16:47:42.140Z,47.52
2018-06-29T16:50:11.776Z,47.28
2018-06-29T16:52:40.983Z,46.79
2018-06-29T16:55:10.196Z,47.67
2018-06-29T16:57:39.341Z,47.77
2018-06-29T17:00:08.953Z,46.90
2018-06-29T17:02:38.377Z,46.77
2018-06-29T17:05:07.590Z,46.93
2018-06-29T17:07:36.717Z,47.35
2018-06-29T17:10:05.973Z,47.94
2018-06-29T17:12:35.087Z,48.20
2018-06-29T17:15:04.272Z,48.87
2018-06-29T17:17:33.458Z,50.17
2018-06-29T17:20:02.682Z,50.62
2018-06-29T17:22:31.847Z,50.83
2018-06-29T17:25:01.054Z,51.09
2018-06-29T17:27:31.942Z,51.83
2018-06-29T17:30:01.087Z,52.16
2018-06-29T17:32:30.218Z,52.73
2018-06-29T17:35:02.336Z,53.19
2018-06-29T17:37:33.819Z,52.81
2018-06-29T17:40:03.963Z,52.87
2018-06-29T17:42:34.053Z,53.66
2018-06-29T17:45:04.885Z,53.66
2018-06-29T17:47:35.561Z,54.08
2018-06-29T17:50:07.520Z,55.14
2018-06-29T17:52:39.126Z,54.95
2018-06-29T17:55:08.283Z,55.00
2018-06-29T17:57:37.464Z,55.81
2018-06-29T18:00:07.342Z,55.26
2018-06-29T18:02:36.542Z,56.10
2018-06-29T18:05:05.843Z,55.68
2018-06-29T18:07:35.331Z,55.90
2018-06-29T18:10:04.866Z,56.25
2018-06-29T18:12:34.269Z,56.48
2018-06-29T18:15:03.636Z,57.18
2018-06-29T18:17:33.317Z,57.09
2018-06-29T18:20:02.864Z,57.12
2018-06-29T18:22:32.350Z,57.29
2018-06-29T18:25:01.492Z,57.73
2018-06-29T18:27:30.710Z,56.86
2018-06-29T18:29:59.852Z,57.25
2018-06-29T18:32:29.159Z,57.86
2018-06-29T18:34:58.347Z,57.23
2018-06-29T18:37:27.569Z,57.23
2018-06-29T18:39:56.685Z,57.14
2018-06-29T18:42:25.846Z,57.19
2018-06-29T18:44:55.228Z,57.25
2018-06-29T18:47:24.427Z,57.30
2018-06-29T18:49:53.587Z,58.02
2018-06-29T18:52:22.725Z,58.12
2018-06-29T18:54:51.836Z,58.44
2018-06-29T18:57:21.014Z,58.14
2018-06-29T18:59:50.152Z,57.81
2018-06-29T19:02:19.397Z,58.01
2018-06-29T19:04:48.584Z,58.59
2018-06-29T19:07:17.748Z,58.41
2018-06-29T19:09:46.879Z,57.94
2018-06-29T19:12:16.057Z,58.61
2018-06-29T19:14:45.185Z,57.84
2018-06-29T19:17:14.457Z,58.31
2018-06-29T19:19:43.582Z,57.42
2018-06-29T19:22:12.866Z,58.28
2018-06-29T19:24:42.139Z,57.91
2018-06-29T19:27:11.348Z,57.92
2018-06-29T19:29:40.529Z,58.07
2018-06-29T19:32:09.831Z,57.86
2018-06-29T19:34:38.981Z,58.34
2018-06-29T19:37:08.145Z,58.33
2018-06-29T19:39:37.388Z,58.33
2018-06-29T19:42:06.565Z,57.42
2018-06-29T19:44:35.719Z,57.53
2018-06-29T19:47:04.924Z,57.29
2018-06-29T19:49:34.101Z,57.73
2018-06-29T19:52:03.261Z,57.39
2018-06-29T19:54:32.417Z,57.96
2018-06-29T19:57:01.570Z,57.39
2018-06-29T19:59:30.715Z,57.82
2018-06-29T20:02:01.149Z,58.13
2018-06-29T20:04:31.479Z,58.32
2018-06-29T20:07:02.028Z,58.88
2018-06-29T20:09:31.283Z,58.22
2018-06-29T20:12:02.895Z,58.41
2018-06-29T20:14:32.150Z,58.51
2018-06-29T20:17:03.449Z,58.39
2018-06-29T20:19:33.266Z,58.26
2018-06-29T20:22:02.490Z,58.94
2018-06-29T20:24:33.278Z,59.28
2018-06-29T20:27:04.347Z,59.01
2018-06-29T20:29:33.937Z,59.29
2018-06-29T20:32:05.450Z,58.95
2018-06-29T20:34:36.429Z,59.05
2018-06-29T20:37:07.371Z,59.21
2018-06-29T20:39:37.052Z,60.30
2018-06-29T20:42:06.417Z,60.52
2018-06-29T20:44:36.767Z,60.25
2018-06-29T20:47:06.820Z,60.88
2018-06-29T20:49:36.471Z,60.85
2018-06-29T20:52:07.295Z,61.13
2018-06-29T20:54:37.080Z,61.52
2018-06-29T20:57:09.214Z,61.24
2018-06-29T20:59:38.490Z,61.26
2018-06-29T21:02:09.791Z,61.91
2018-06-29T21:04:40.820Z,62.51
2018-06-29T21:07:12.732Z,62.28
2018-06-29T21:09:46.544Z,62.89
2018-06-29T21:12:15.739Z,62.66
2018-06-29T21:14:45.153Z,62.95
2018-06-29T21:17:15.205Z,63.52
2018-06-29T21:19:45.773Z,63.88
2018-06-29T21:22:17.131Z,64.09
2018-06-29T21:24:48.720Z,64.61
2018-06-29T21:27:20.936Z,64.04
2018-06-29T21:29:50.255Z,64.82
2018-06-29T21:32:21.170Z,64.73
2018-06-29T21:34:52.859Z,64.86
2018-06-29T21:37:24.040Z,65.45
2018-06-29T21:39:54.457Z,65.94
2018-06-29T21:42:23.641Z,65.94
2018-06-29T21:44:55.704Z,65.38
2018-06-29T21:47:25.391Z,66.06
2018-06-29T21:49:55.674Z,66.56
2018-06-29T21:52:26.500Z,66.73
2018-06-29T21:54:57.790Z,66.63
2018-06-29T21:57:26.946Z,66.69
2018-06-29T21:59:56.827Z,67.06
2018-06-29T22:02:27.399Z,66.32
2018-06-29T22:04:59.223Z,66.21
2018-06-29T22:07:30.756Z,66.99
2018-06-29T22:09:59.996Z,66.18
2018-06-29T22:12:31.242Z,66.96
2018-06-29T22:15:00.899Z,66.65
2018-06-29T22:17:31.801Z,66.60
2018-06-29T22:20:02.095Z,66.44
2018-06-29T22:22:33.292Z,66.71
2018-06-29T22:25:02.986Z,67.08
2018-06-29T22:27:33.096Z,66.68
2018-06-29T22:30:03.545Z,66.72
2018-06-29T22:32:33.436Z,66.98
2018-06-29T22:35:03.493Z,67.01
2018-06-29T22:37:32.696Z,66.86
2018-06-29T22:40:04.575Z,67.51
2018-06-29T22:42:36.764Z,67.30
2018-06-29T22:45:10.657Z,67.64
2018-06-29T22:47:40.210Z,67.30
2018-06-29T22:50:11.827Z,67.64
2018-06-29T22:52:42.174Z,67.19
2018-06-29T22:55:13.316Z,67.51
2018-06-29T22:57:44.458Z,67.15
2018-06-29T23:00:14.322Z,67.69
2018-06-29T23:02:46.311Z,67.82
2018-06-29T23:05:17.471Z,67.40
2018-06-29T23:07:47.679Z,67.82
2018-06-29T23:10:18.374Z,67.54
2018-06-29T23:12:49.324Z,66.98
2018-06-29T23:15:19.195Z,67.28
2018-06-29T23:17:49.701Z,66.95
2018-06-29T23:20:20.386Z,66.56
2018-06-29T23:22:49.627Z,66.41
2018-06-29T23:25:20.059Z,67.08
2018-06-29T23:27:50.500Z,66.74
2018-06-29T23:30:21.356Z,66.78
2018-06-29T23:32:51.546Z,66.56
2018-06-29T23:35:21.199Z,66.44
2018-06-29T23:37:53.111Z,66.49
2018-06-29T23:40:22.761Z,66.14
2018-06-29T23:42:53.162Z,66.01
2018-06-29T23:45:22.714Z,65.79
2018-06-29T23:47:53.635Z,66.62
2018-06-29T23:50:23.968Z,66.26
2018-06-29T23:52:56.055Z,66.73
2018-06-29T23:55:28.513Z,66.36
2018-06-29T23:57:58.001Z,66.92
